AAY426 KCVG-KPGD
Flight info
| Callsign | AAY426 |
|---|---|
| Flight time | 1h 57m |
| Altitude | 37000 |
| Route | KENLN6 SHIPR VXV IRQ/N0439F380 KYYUU LUBBR4 |
| Aircraft | A20N/M-SDE2E3FGHIRWXY/LB1 |
Departure
| Time | 2026-04-21 00:03 |
|---|---|
| Airport | Cincinnati Northern Kentucky International Airport (KCVG) |
Arrival
| Time | 2026-04-21 02:01 |
|---|---|
| Airport | Punta Gorda Airport (KPGD) |
| Time | Latitude | Longitude | Altitude | Speed | Heading |
|---|---|---|---|---|---|
| 2026-04-20 23:21 | 39.05055 | -84.65208 | 893 ft | 0 kts | 255° |
| 2026-04-20 23:58 | 39.05057 | -84.65195 | 893 ft | 2 kts | 251° |
| 2026-04-20 23:58 | 39.05062 | -84.65175 | 893 ft | 2 kts | 253° |
| 2026-04-20 23:58 | 39.05067 | -84.65154 | 894 ft | 2 kts | 252° |
| 2026-04-20 23:59 | 39.05072 | -84.65134 | 894 ft | 2 kts | 250° |
| 2026-04-20 23:59 | 39.05078 | -84.65114 | 894 ft | 2 kts | 247° |
| 2026-04-20 23:59 | 39.05085 | -84.65095 | 894 ft | 2 kts | 241° |
| 2026-04-20 23:59 | 39.05093 | -84.65080 | 896 ft | 2 kts | 229° |
| 2026-04-21 00:00 | 39.05102 | -84.65070 | 896 ft | 1 kts | 197° |
| 2026-04-21 00:00 | 39.05110 | -84.65068 | 897 ft | 1 kts | 181° |
| 2026-04-21 00:00 | 39.05102 | -84.65069 | 895 ft | 3 kts | 184° |
| 2026-04-21 00:00 | 39.05089 | -84.65071 | 895 ft | 0 kts | 188° |
| 2026-04-21 00:01 | 39.05086 | -84.65071 | 895 ft | 4 kts | 179° |
| 2026-04-21 00:01 | 39.04996 | -84.65068 | 896 ft | 17 kts | 178° |
| 2026-04-21 00:01 | 39.04875 | -84.65062 | 896 ft | 15 kts | 182° |
| 2026-04-21 00:01 | 39.04827 | -84.65078 | 895 ft | 7 kts | 244° |
| 2026-04-21 00:02 | 39.04807 | -84.65192 | 893 ft | 18 kts | 265° |
| 2026-04-21 00:02 | 39.04799 | -84.65299 | 890 ft | 2 kts | 203° |
| 2026-04-21 00:02 | 39.04691 | -84.65296 | 889 ft | 22 kts | 184° |
| 2026-04-21 00:02 | 39.04624 | -84.65353 | 888 ft | 3 kts | 274° |
| 2026-04-21 00:03 | 39.04633 | -84.65539 | 885 ft | 59 kts | 273° |
| 2026-04-21 00:03 | 39.04633 | -84.66498 | 888 ft | 155 kts | 270° |
| 2026-04-21 00:03 | 39.04629 | -84.68159 | 1101 ft | 211 kts | 269° |
| 2026-04-21 00:03 | 39.04617 | -84.70128 | 2142 ft | 224 kts | 270° |
| 2026-04-21 00:04 | 39.04615 | -84.72169 | 3354 ft | 237 kts | 270° |
| 2026-04-21 00:04 | 39.04614 | -84.74334 | 4298 ft | 250 kts | 270° |
| 2026-04-21 00:04 | 39.04612 | -84.76597 | 5399 ft | 255 kts | 270° |
| 2026-04-21 00:04 | 39.04609 | -84.78879 | 6704 ft | 251 kts | 271° |
| 2026-04-21 00:05 | 39.04601 | -84.81107 | 8004 ft | 248 kts | 271° |
| 2026-04-21 00:05 | 39.04355 | -84.83327 | 9191 ft | 255 kts | 259° |
| 2026-04-21 00:05 | 39.03570 | -84.85433 | 10300 ft | 272 kts | 241° |
| 2026-04-21 00:05 | 39.02054 | -84.87126 | 10917 ft | 313 kts | 213° |
| 2026-04-21 00:06 | 38.99824 | -84.87759 | 11677 ft | 345 kts | 184° |
| 2026-04-21 00:06 | 38.97423 | -84.87107 | 12629 ft | 360 kts | 165° |
| 2026-04-21 00:06 | 38.95025 | -84.85985 | 13601 ft | 369 kts | 163° |
| 2026-04-21 00:06 | 38.92621 | -84.84862 | 14542 ft | 376 kts | 164° |
| 2026-04-21 00:07 | 38.90129 | -84.83766 | 15422 ft | 382 kts | 165° |
| 2026-04-21 00:07 | 38.87580 | -84.82699 | 16311 ft | 388 kts | 166° |
| 2026-04-21 00:07 | 38.84977 | -84.81643 | 17181 ft | 395 kts | 166° |
| 2026-04-21 00:07 | 38.82329 | -84.80587 | 18045 ft | 401 kts | 166° |
| 2026-04-21 00:08 | 38.79641 | -84.79525 | 18858 ft | 407 kts | 166° |
| 2026-04-21 00:08 | 38.76911 | -84.78453 | 19588 ft | 413 kts | 166° |
| 2026-04-21 00:08 | 38.74142 | -84.77369 | 20328 ft | 419 kts | 166° |
| 2026-04-21 00:08 | 38.71326 | -84.76269 | 21053 ft | 424 kts | 166° |
| 2026-04-21 00:09 | 38.68517 | -84.75174 | 21759 ft | 430 kts | 166° |
| 2026-04-21 00:09 | 38.65630 | -84.74049 | 22471 ft | 435 kts | 166° |
| 2026-04-21 00:09 | 38.62718 | -84.72915 | 23168 ft | 440 kts | 166° |
| 2026-04-21 00:09 | 38.59767 | -84.71768 | 23830 ft | 446 kts | 166° |
| 2026-04-21 00:10 | 38.56773 | -84.70604 | 24386 ft | 451 kts | 166° |
| 2026-04-21 00:10 | 38.53746 | -84.69429 | 24930 ft | 455 kts | 166° |
| 2026-04-21 00:10 | 38.50746 | -84.68266 | 25457 ft | 459 kts | 166° |
| 2026-04-21 00:10 | 38.47664 | -84.67072 | 25988 ft | 463 kts | 166° |
| 2026-04-21 00:11 | 38.44568 | -84.65873 | 26502 ft | 467 kts | 166° |
| 2026-04-21 00:11 | 38.42500 | -84.65073 | 26835 ft | 470 kts | 166° |
| 2026-04-21 00:11 | 38.38290 | -84.63446 | 27485 ft | 475 kts | 166° |
| 2026-04-21 00:11 | 38.36177 | -84.62630 | 27811 ft | 477 kts | 166° |
| 2026-04-21 00:12 | 38.31944 | -84.60997 | 28441 ft | 482 kts | 166° |
| 2026-04-21 00:12 | 38.28721 | -84.59756 | 28897 ft | 486 kts | 166° |
| 2026-04-21 00:12 | 38.25471 | -84.58505 | 29326 ft | 490 kts | 166° |
| 2026-04-21 00:12 | 38.23296 | -84.57668 | 29620 ft | 492 kts | 166° |
| 2026-04-21 00:13 | 38.20005 | -84.56403 | 30058 ft | 495 kts | 165° |
| 2026-04-21 00:13 | 38.16694 | -84.55132 | 30452 ft | 499 kts | 165° |
| 2026-04-21 00:13 | 38.13366 | -84.53855 | 30805 ft | 502 kts | 165° |
| 2026-04-21 00:13 | 38.10012 | -84.52569 | 31195 ft | 503 kts | 165° |
| 2026-04-21 00:14 | 38.06661 | -84.51285 | 31725 ft | 501 kts | 165° |
| 2026-04-21 00:14 | 38.03331 | -84.50010 | 32248 ft | 499 kts | 166° |
| 2026-04-21 00:14 | 38.00008 | -84.48740 | 32759 ft | 497 kts | 166° |
| 2026-04-21 00:14 | 37.96695 | -84.47488 | 33247 ft | 495 kts | 167° |
| 2026-04-21 00:15 | 37.93369 | -84.46380 | 33735 ft | 493 kts | 169° |
| 2026-04-21 00:15 | 37.90019 | -84.45387 | 34203 ft | 491 kts | 170° |
| 2026-04-21 00:15 | 37.86732 | -84.44467 | 34609 ft | 490 kts | 171° |
| 2026-04-21 00:15 | 37.83408 | -84.43552 | 35025 ft | 488 kts | 171° |
| 2026-04-21 00:16 | 37.80095 | -84.42635 | 35447 ft | 485 kts | 172° |
| 2026-04-21 00:16 | 37.76802 | -84.41713 | 35854 ft | 483 kts | 172° |
| 2026-04-21 00:16 | 37.73523 | -84.40785 | 36241 ft | 481 kts | 172° |
| 2026-04-21 00:16 | 37.70268 | -84.39857 | 36602 ft | 480 kts | 172° |
| 2026-04-21 00:17 | 37.67015 | -84.38925 | 36957 ft | 479 kts | 172° |
| 2026-04-21 00:17 | 37.63768 | -84.37994 | 37271 ft | 478 kts | 172° |
| 2026-04-21 00:17 | 37.60513 | -84.37062 | 37342 ft | 479 kts | 172° |
| 2026-04-21 00:18 | 37.54042 | -84.35207 | 37351 ft | 475 kts | 172° |
| 2026-04-21 00:18 | 37.47636 | -84.33378 | 37342 ft | 474 kts | 172° |
| 2026-04-21 00:19 | 37.41194 | -84.31542 | 37333 ft | 474 kts | 172° |
| 2026-04-21 00:19 | 37.34747 | -84.29708 | 37331 ft | 474 kts | 173° |
| 2026-04-21 00:20 | 37.28311 | -84.27880 | 37326 ft | 474 kts | 173° |
| 2026-04-21 00:20 | 37.21887 | -84.26059 | 37320 ft | 474 kts | 173° |
| 2026-04-21 00:21 | 37.15486 | -84.24247 | 37320 ft | 473 kts | 173° |
| 2026-04-21 00:21 | 37.09049 | -84.22428 | 37316 ft | 473 kts | 173° |
| 2026-04-21 00:22 | 37.02632 | -84.20618 | 37318 ft | 473 kts | 173° |
| 2026-04-21 00:22 | 36.96204 | -84.18808 | 37317 ft | 473 kts | 173° |
| 2026-04-21 00:23 | 36.89784 | -84.17004 | 37319 ft | 473 kts | 173° |
| 2026-04-21 00:23 | 36.83404 | -84.15213 | 37317 ft | 473 kts | 173° |
| 2026-04-21 00:24 | 36.76971 | -84.13411 | 37318 ft | 472 kts | 173° |
| 2026-04-21 00:24 | 36.70561 | -84.11618 | 37323 ft | 472 kts | 173° |
| 2026-04-21 00:25 | 36.64150 | -84.09829 | 37317 ft | 472 kts | 173° |
| 2026-04-21 00:25 | 36.57741 | -84.08042 | 37312 ft | 472 kts | 173° |
| 2026-04-21 00:26 | 36.51338 | -84.06261 | 37285 ft | 471 kts | 173° |
| 2026-04-21 00:26 | 36.44933 | -84.04482 | 37279 ft | 471 kts | 173° |
| 2026-04-21 00:27 | 36.38569 | -84.02717 | 37277 ft | 471 kts | 173° |
| 2026-04-21 00:27 | 36.32159 | -84.00943 | 37276 ft | 471 kts | 173° |
| 2026-04-21 00:28 | 36.25750 | -83.99171 | 37273 ft | 471 kts | 174° |
| 2026-04-21 00:28 | 36.19396 | -83.97418 | 37278 ft | 472 kts | 174° |
| 2026-04-21 00:29 | 36.12969 | -83.95648 | 37281 ft | 472 kts | 174° |
| 2026-04-21 00:29 | 36.09288 | -83.94635 | 37280 ft | 472 kts | 174° |
| 2026-04-21 00:30 | 36.02873 | -83.92873 | 37282 ft | 472 kts | 174° |
| 2026-04-21 00:30 | 35.96454 | -83.91113 | 37285 ft | 472 kts | 174° |
| 2026-04-21 00:31 | 35.90134 | -83.88782 | 37283 ft | 482 kts | 159° |
| 2026-04-21 00:31 | 35.84340 | -83.84617 | 37279 ft | 487 kts | 151° |
| 2026-04-21 00:32 | 35.78679 | -83.80018 | 37272 ft | 488 kts | 149° |
| 2026-04-21 00:32 | 35.73045 | -83.75360 | 37276 ft | 487 kts | 150° |
| 2026-04-21 00:33 | 35.67389 | -83.70739 | 37270 ft | 487 kts | 150° |
| 2026-04-21 00:33 | 35.61719 | -83.66149 | 37265 ft | 487 kts | 150° |
| 2026-04-21 00:34 | 35.56056 | -83.61581 | 37266 ft | 486 kts | 151° |
| 2026-04-21 00:34 | 35.50432 | -83.57054 | 37265 ft | 486 kts | 150° |
| 2026-04-21 00:35 | 35.44772 | -83.52505 | 37266 ft | 486 kts | 151° |
| 2026-04-21 00:35 | 35.39091 | -83.47944 | 37266 ft | 487 kts | 151° |
| 2026-04-21 00:36 | 35.33423 | -83.43403 | 37266 ft | 487 kts | 151° |
| 2026-04-21 00:36 | 35.27744 | -83.38860 | 37269 ft | 488 kts | 151° |
| 2026-04-21 00:37 | 35.22053 | -83.34315 | 37261 ft | 488 kts | 151° |
| 2026-04-21 00:37 | 35.16400 | -83.29809 | 37257 ft | 488 kts | 151° |
| 2026-04-21 00:38 | 35.10714 | -83.25284 | 37257 ft | 488 kts | 152° |
| 2026-04-21 00:38 | 35.05001 | -83.20745 | 37253 ft | 489 kts | 151° |
| 2026-04-21 00:39 | 34.99300 | -83.16223 | 37253 ft | 489 kts | 152° |
| 2026-04-21 00:39 | 34.93621 | -83.11727 | 37242 ft | 490 kts | 152° |
| 2026-04-21 00:40 | 34.87896 | -83.07202 | 37245 ft | 491 kts | 152° |
| 2026-04-21 00:40 | 34.82157 | -83.02672 | 37239 ft | 491 kts | 152° |
| 2026-04-21 00:41 | 34.76409 | -82.98144 | 37239 ft | 492 kts | 152° |
| 2026-04-21 00:41 | 34.70656 | -82.93618 | 37236 ft | 492 kts | 152° |
| 2026-04-21 00:42 | 34.64900 | -82.89099 | 37234 ft | 492 kts | 152° |
| 2026-04-21 00:42 | 34.59181 | -82.84616 | 37237 ft | 493 kts | 152° |
| 2026-04-21 00:43 | 34.53408 | -82.80098 | 37239 ft | 493 kts | 152° |
| 2026-04-21 00:43 | 34.47624 | -82.75580 | 37234 ft | 494 kts | 152° |
| 2026-04-21 00:44 | 34.41883 | -82.71102 | 37236 ft | 494 kts | 152° |
| 2026-04-21 00:44 | 34.36087 | -82.66589 | 37233 ft | 495 kts | 152° |
| 2026-04-21 00:45 | 34.27389 | -82.59830 | 37238 ft | 496 kts | 153° |
| 2026-04-21 00:45 | 34.21576 | -82.55323 | 37236 ft | 496 kts | 153° |
| 2026-04-21 00:46 | 34.15757 | -82.50818 | 37230 ft | 497 kts | 153° |
| 2026-04-21 00:46 | 34.09951 | -82.46330 | 37242 ft | 498 kts | 153° |
| 2026-04-21 00:47 | 34.04115 | -82.41827 | 37238 ft | 498 kts | 153° |
| 2026-04-21 00:47 | 33.98274 | -82.37328 | 37228 ft | 498 kts | 153° |
| 2026-04-21 00:48 | 33.92437 | -82.32839 | 37232 ft | 498 kts | 153° |
| 2026-04-21 00:48 | 33.86585 | -82.28345 | 37230 ft | 498 kts | 153° |
| 2026-04-21 00:49 | 33.80730 | -82.23857 | 37232 ft | 498 kts | 153° |
| 2026-04-21 00:49 | 33.74878 | -82.19396 | 37232 ft | 496 kts | 156° |
| 2026-04-21 00:50 | 33.71807 | -82.17625 | 37231 ft | 484 kts | 168° |
| 2026-04-21 00:50 | 33.68607 | -82.16603 | 37232 ft | 469 kts | 181° |
| 2026-04-21 00:50 | 33.65450 | -82.16314 | 37236 ft | 454 kts | 189° |
| 2026-04-21 00:50 | 33.62315 | -82.16290 | 37238 ft | 447 kts | 191° |
| 2026-04-21 00:51 | 33.56123 | -82.16370 | 37237 ft | 444 kts | 192° |
| 2026-04-21 00:51 | 33.49937 | -82.16458 | 37234 ft | 443 kts | 192° |
| 2026-04-21 00:52 | 33.43803 | -82.16538 | 37235 ft | 443 kts | 192° |
| 2026-04-21 00:52 | 33.37630 | -82.16615 | 37235 ft | 443 kts | 192° |
| 2026-04-21 00:53 | 33.31465 | -82.16691 | 37221 ft | 443 kts | 192° |
| 2026-04-21 00:53 | 33.25287 | -82.16767 | 37228 ft | 443 kts | 192° |
| 2026-04-21 00:54 | 33.19168 | -82.16842 | 37218 ft | 442 kts | 192° |
| 2026-04-21 00:54 | 33.13010 | -82.16917 | 37224 ft | 442 kts | 192° |
| 2026-04-21 00:55 | 33.06860 | -82.16993 | 37225 ft | 442 kts | 193° |
| 2026-04-21 00:55 | 33.00698 | -82.17068 | 37226 ft | 442 kts | 193° |
| 2026-04-21 00:56 | 32.94545 | -82.17143 | 37229 ft | 442 kts | 193° |
| 2026-04-21 00:56 | 32.88394 | -82.17218 | 37237 ft | 442 kts | 193° |
| 2026-04-21 00:57 | 32.82244 | -82.17292 | 37232 ft | 442 kts | 193° |
| 2026-04-21 00:57 | 32.76131 | -82.17366 | 37234 ft | 441 kts | 193° |
| 2026-04-21 00:58 | 32.69993 | -82.17441 | 37241 ft | 441 kts | 193° |
| 2026-04-21 00:58 | 32.63846 | -82.17515 | 37245 ft | 440 kts | 193° |
| 2026-04-21 00:59 | 32.57709 | -82.17589 | 37246 ft | 440 kts | 193° |
| 2026-04-21 00:59 | 32.51623 | -82.17663 | 37257 ft | 440 kts | 193° |
| 2026-04-21 01:00 | 32.45502 | -82.17736 | 37254 ft | 439 kts | 193° |
| 2026-04-21 01:00 | 32.40412 | -82.17797 | 37266 ft | 439 kts | 193° |
| 2026-04-21 01:01 | 32.34268 | -82.17871 | 37264 ft | 438 kts | 193° |
| 2026-04-21 01:01 | 32.28210 | -82.17944 | 37263 ft | 438 kts | 193° |
| 2026-04-21 01:02 | 32.22119 | -82.18017 | 37262 ft | 437 kts | 193° |
| 2026-04-21 01:02 | 32.16037 | -82.18090 | 37262 ft | 436 kts | 193° |
| 2026-04-21 01:03 | 32.09958 | -82.18163 | 37262 ft | 436 kts | 193° |
| 2026-04-21 01:03 | 32.03929 | -82.18234 | 37266 ft | 435 kts | 193° |
| 2026-04-21 01:04 | 31.97871 | -82.18307 | 37262 ft | 435 kts | 193° |
| 2026-04-21 01:04 | 31.91814 | -82.18379 | 37260 ft | 434 kts | 193° |
| 2026-04-21 01:05 | 31.85770 | -82.18451 | 37258 ft | 434 kts | 193° |
| 2026-04-21 01:05 | 31.79733 | -82.18522 | 37256 ft | 433 kts | 193° |
| 2026-04-21 01:06 | 31.73706 | -82.18594 | 37252 ft | 433 kts | 193° |
| 2026-04-21 01:06 | 31.67716 | -82.18665 | 37266 ft | 432 kts | 193° |
| 2026-04-21 01:07 | 31.61698 | -82.18736 | 37271 ft | 432 kts | 193° |
| 2026-04-21 01:07 | 31.55682 | -82.18807 | 37273 ft | 431 kts | 193° |
| 2026-04-21 01:08 | 31.49712 | -82.18878 | 37274 ft | 430 kts | 193° |
| 2026-04-21 01:08 | 31.43720 | -82.18948 | 37266 ft | 430 kts | 193° |
| 2026-04-21 01:09 | 31.37733 | -82.19019 | 37272 ft | 429 kts | 193° |
| 2026-04-21 01:09 | 31.31754 | -82.19089 | 37273 ft | 429 kts | 193° |
| 2026-04-21 01:10 | 31.25798 | -82.19159 | 37278 ft | 428 kts | 193° |
| 2026-04-21 01:10 | 31.19876 | -82.19228 | 37273 ft | 427 kts | 193° |
| 2026-04-21 01:11 | 31.13940 | -82.19298 | 37277 ft | 426 kts | 193° |
| 2026-04-21 01:11 | 31.08011 | -82.19367 | 37271 ft | 425 kts | 193° |
| 2026-04-21 01:12 | 31.02088 | -82.19437 | 37271 ft | 425 kts | 193° |
| 2026-04-21 01:12 | 30.96182 | -82.19506 | 37268 ft | 424 kts | 193° |
| 2026-04-21 01:13 | 30.90269 | -82.19575 | 37268 ft | 424 kts | 193° |
| 2026-04-21 01:13 | 30.84403 | -82.19643 | 37271 ft | 424 kts | 193° |
| 2026-04-21 01:14 | 30.78502 | -82.19712 | 37268 ft | 423 kts | 193° |
| 2026-04-21 01:14 | 30.72596 | -82.19781 | 37269 ft | 423 kts | 193° |
| 2026-04-21 01:15 | 30.66707 | -82.19849 | 37269 ft | 423 kts | 193° |
| 2026-04-21 01:15 | 30.60888 | -82.20194 | 37273 ft | 415 kts | 198° |
| 2026-04-21 01:16 | 30.55190 | -82.20839 | 37271 ft | 414 kts | 199° |
| 2026-04-21 01:16 | 30.49459 | -82.21495 | 37282 ft | 414 kts | 199° |
| 2026-04-21 01:17 | 30.43732 | -82.22146 | 37282 ft | 413 kts | 199° |
| 2026-04-21 01:17 | 30.38009 | -82.22793 | 37276 ft | 413 kts | 199° |
| 2026-04-21 01:18 | 30.32275 | -82.23440 | 37281 ft | 412 kts | 199° |
| 2026-04-21 01:18 | 30.26596 | -82.24080 | 37279 ft | 412 kts | 199° |
| 2026-04-21 01:19 | 30.20891 | -82.24723 | 37281 ft | 411 kts | 199° |
| 2026-04-21 01:19 | 30.15143 | -82.25145 | 37275 ft | 423 kts | 190° |
| 2026-04-21 01:20 | 30.09236 | -82.24492 | 37277 ft | 430 kts | 186° |
| 2026-04-21 01:20 | 30.03293 | -82.23702 | 37198 ft | 432 kts | 186° |
| 2026-04-21 01:21 | 30.00280 | -82.23313 | 36937 ft | 438 kts | 186° |
| 2026-04-21 01:21 | 29.97249 | -82.22920 | 36686 ft | 439 kts | 186° |
| 2026-04-21 01:21 | 29.94234 | -82.22527 | 36444 ft | 439 kts | 186° |
| 2026-04-21 01:21 | 29.91206 | -82.22133 | 36192 ft | 438 kts | 186° |
| 2026-04-21 01:22 | 29.88181 | -82.21741 | 35944 ft | 437 kts | 186° |
| 2026-04-21 01:22 | 29.85150 | -82.21349 | 35703 ft | 435 kts | 186° |
| 2026-04-21 01:22 | 29.82143 | -82.20962 | 35461 ft | 434 kts | 186° |
| 2026-04-21 01:22 | 29.79140 | -82.20576 | 35220 ft | 433 kts | 186° |
| 2026-04-21 01:23 | 29.76148 | -82.20191 | 34985 ft | 432 kts | 186° |
| 2026-04-21 01:23 | 29.73155 | -82.19808 | 34750 ft | 431 kts | 186° |
| 2026-04-21 01:23 | 29.70211 | -82.19430 | 34515 ft | 430 kts | 186° |
| 2026-04-21 01:23 | 29.67206 | -82.19045 | 34270 ft | 429 kts | 186° |
| 2026-04-21 01:24 | 29.64239 | -82.18666 | 34005 ft | 429 kts | 186° |
| 2026-04-21 01:24 | 29.61264 | -82.18288 | 33731 ft | 430 kts | 185° |
| 2026-04-21 01:24 | 29.58317 | -82.17915 | 33468 ft | 432 kts | 185° |
| 2026-04-21 01:24 | 29.55320 | -82.17538 | 33202 ft | 434 kts | 185° |
| 2026-04-21 01:25 | 29.52313 | -82.17158 | 32944 ft | 434 kts | 185° |
| 2026-04-21 01:25 | 29.49304 | -82.16778 | 32676 ft | 434 kts | 185° |
| 2026-04-21 01:25 | 29.46290 | -82.16397 | 32416 ft | 434 kts | 184° |
| 2026-04-21 01:25 | 29.43285 | -82.16018 | 32151 ft | 434 kts | 184° |
| 2026-04-21 01:26 | 29.40312 | -82.15644 | 31903 ft | 434 kts | 184° |
| 2026-04-21 01:26 | 29.37317 | -82.15267 | 31653 ft | 433 kts | 184° |
| 2026-04-21 01:26 | 29.34317 | -82.14890 | 31409 ft | 433 kts | 184° |
| 2026-04-21 01:26 | 29.31317 | -82.14513 | 31173 ft | 433 kts | 183° |
| 2026-04-21 01:27 | 29.28318 | -82.14136 | 30927 ft | 433 kts | 183° |
| 2026-04-21 01:27 | 29.25330 | -82.13762 | 30685 ft | 433 kts | 183° |
| 2026-04-21 01:27 | 29.22335 | -82.13386 | 30453 ft | 433 kts | 183° |
| 2026-04-21 01:27 | 29.19338 | -82.13011 | 30192 ft | 433 kts | 182° |
| 2026-04-21 01:28 | 29.16356 | -82.12745 | 29913 ft | 427 kts | 187° |
| 2026-04-21 01:28 | 29.13398 | -82.12644 | 29636 ft | 424 kts | 188° |
| 2026-04-21 01:28 | 29.10459 | -82.12581 | 29364 ft | 421 kts | 188° |
| 2026-04-21 01:28 | 29.07536 | -82.12524 | 29092 ft | 419 kts | 188° |
| 2026-04-21 01:29 | 29.04627 | -82.12466 | 28819 ft | 417 kts | 188° |
| 2026-04-21 01:29 | 29.01772 | -82.12408 | 28558 ft | 415 kts | 188° |
| 2026-04-21 01:29 | 28.98887 | -82.12349 | 28292 ft | 412 kts | 188° |
| 2026-04-21 01:29 | 28.96023 | -82.12290 | 28037 ft | 410 kts | 187° |
| 2026-04-21 01:30 | 28.93171 | -82.12231 | 27776 ft | 408 kts | 187° |
| 2026-04-21 01:30 | 28.90336 | -82.12172 | 27525 ft | 407 kts | 187° |
| 2026-04-21 01:30 | 28.87510 | -82.12113 | 27272 ft | 405 kts | 187° |
| 2026-04-21 01:30 | 28.84689 | -82.12054 | 27019 ft | 403 kts | 187° |
| 2026-04-21 01:31 | 28.81932 | -82.11997 | 26778 ft | 401 kts | 187° |
| 2026-04-21 01:31 | 28.79148 | -82.11939 | 26529 ft | 400 kts | 187° |
| 2026-04-21 01:31 | 28.76359 | -82.11881 | 26275 ft | 398 kts | 187° |
| 2026-04-21 01:31 | 28.73590 | -82.11824 | 26040 ft | 397 kts | 187° |
| 2026-04-21 01:32 | 28.70823 | -82.11767 | 25799 ft | 396 kts | 187° |
| 2026-04-21 01:32 | 28.68074 | -82.11665 | 25560 ft | 397 kts | 183° |
| 2026-04-21 01:32 | 28.65317 | -82.11350 | 25316 ft | 398 kts | 180° |
| 2026-04-21 01:32 | 28.62565 | -82.10962 | 25085 ft | 398 kts | 180° |
| 2026-04-21 01:33 | 28.59823 | -82.10564 | 24853 ft | 397 kts | 180° |
| 2026-04-21 01:33 | 28.57090 | -82.10167 | 24618 ft | 395 kts | 180° |
| 2026-04-21 01:33 | 28.54391 | -82.09777 | 24386 ft | 394 kts | 180° |
| 2026-04-21 01:33 | 28.51668 | -82.09386 | 24165 ft | 394 kts | 180° |
| 2026-04-21 01:34 | 28.48942 | -82.08960 | 23935 ft | 395 kts | 176° |
| 2026-04-21 01:34 | 28.46238 | -82.08341 | 23683 ft | 396 kts | 174° |
| 2026-04-21 01:34 | 28.43550 | -82.07657 | 23427 ft | 396 kts | 173° |
| 2026-04-21 01:34 | 28.40867 | -82.06963 | 23166 ft | 394 kts | 173° |
| 2026-04-21 01:35 | 28.38233 | -82.06283 | 22902 ft | 392 kts | 173° |
| 2026-04-21 01:35 | 28.35535 | -82.05589 | 22634 ft | 391 kts | 173° |
| 2026-04-21 01:35 | 28.32923 | -82.04919 | 22383 ft | 389 kts | 173° |
| 2026-04-21 01:35 | 28.30288 | -82.04261 | 22125 ft | 386 kts | 175° |
| 2026-04-21 01:36 | 28.27648 | -82.03776 | 21868 ft | 382 kts | 178° |
| 2026-04-21 01:36 | 28.25015 | -82.03370 | 21620 ft | 380 kts | 178° |
| 2026-04-21 01:36 | 28.22396 | -82.02981 | 21367 ft | 379 kts | 178° |
| 2026-04-21 01:36 | 28.19785 | -82.02593 | 21123 ft | 377 kts | 178° |
| 2026-04-21 01:37 | 28.17187 | -82.02207 | 20875 ft | 376 kts | 178° |
| 2026-04-21 01:37 | 28.14590 | -82.01836 | 20631 ft | 373 kts | 180° |
| 2026-04-21 01:37 | 28.12041 | -82.01904 | 20362 ft | 361 kts | 196° |
| 2026-04-21 01:37 | 28.09706 | -82.02774 | 20125 ft | 349 kts | 211° |
| 2026-04-21 01:38 | 28.07551 | -82.04017 | 19887 ft | 346 kts | 214° |
| 2026-04-21 01:38 | 28.05445 | -82.05320 | 19650 ft | 345 kts | 214° |
| 2026-04-21 01:38 | 28.03373 | -82.06608 | 19419 ft | 344 kts | 214° |
| 2026-04-21 01:38 | 28.01274 | -82.07905 | 19187 ft | 343 kts | 214° |
| 2026-04-21 01:39 | 27.99175 | -82.09196 | 18958 ft | 342 kts | 214° |
| 2026-04-21 01:39 | 27.97081 | -82.10480 | 18736 ft | 341 kts | 214° |
| 2026-04-21 01:39 | 27.94996 | -82.11754 | 18506 ft | 340 kts | 214° |
| 2026-04-21 01:39 | 27.92915 | -82.13024 | 18242 ft | 339 kts | 213° |
| 2026-04-21 01:40 | 27.90839 | -82.14291 | 17984 ft | 339 kts | 213° |
| 2026-04-21 01:40 | 27.88763 | -82.15556 | 17719 ft | 338 kts | 213° |
| 2026-04-21 01:40 | 27.86701 | -82.16812 | 17459 ft | 337 kts | 213° |
| 2026-04-21 01:40 | 27.84635 | -82.18070 | 17203 ft | 336 kts | 213° |
| 2026-04-21 01:41 | 27.82581 | -82.19320 | 16941 ft | 335 kts | 213° |
| 2026-04-21 01:41 | 27.80534 | -82.20565 | 16689 ft | 334 kts | 213° |
| 2026-04-21 01:41 | 27.78491 | -82.21810 | 16437 ft | 333 kts | 213° |
| 2026-04-21 01:41 | 27.76599 | -82.23229 | 16189 ft | 328 kts | 222° |
| 2026-04-21 01:42 | 27.74850 | -82.24876 | 15937 ft | 326 kts | 225° |
| 2026-04-21 01:42 | 27.73147 | -82.26558 | 15694 ft | 325 kts | 225° |
| 2026-04-21 01:42 | 27.71450 | -82.28243 | 15451 ft | 324 kts | 225° |
| 2026-04-21 01:42 | 27.69758 | -82.29919 | 15204 ft | 324 kts | 225° |
| 2026-04-21 01:43 | 27.68064 | -82.31594 | 14967 ft | 323 kts | 225° |
| 2026-04-21 01:43 | 27.66395 | -82.33240 | 14737 ft | 322 kts | 224° |
| 2026-04-21 01:43 | 27.64688 | -82.34922 | 14498 ft | 322 kts | 224° |
| 2026-04-21 01:43 | 27.63009 | -82.36520 | 14267 ft | 317 kts | 219° |
| 2026-04-21 01:44 | 27.61084 | -82.37678 | 14081 ft | 312 kts | 200° |
| 2026-04-21 01:44 | 27.58937 | -82.37979 | 13772 ft | 313 kts | 178° |
| 2026-04-21 01:44 | 27.56792 | -82.37626 | 13462 ft | 309 kts | 171° |
| 2026-04-21 01:44 | 27.54692 | -82.37134 | 13124 ft | 308 kts | 169° |
| 2026-04-21 01:45 | 27.52597 | -82.36626 | 12782 ft | 308 kts | 169° |
| 2026-04-21 01:45 | 27.50504 | -82.36125 | 12444 ft | 306 kts | 169° |
| 2026-04-21 01:45 | 27.48425 | -82.35636 | 12098 ft | 305 kts | 169° |
| 2026-04-21 01:45 | 27.46354 | -82.35153 | 11750 ft | 303 kts | 169° |
| 2026-04-21 01:46 | 27.44316 | -82.34681 | 11410 ft | 302 kts | 169° |
| 2026-04-21 01:46 | 27.42238 | -82.34202 | 11065 ft | 300 kts | 169° |
| 2026-04-21 01:46 | 27.40224 | -82.33738 | 10733 ft | 299 kts | 168° |
| 2026-04-21 01:46 | 27.38187 | -82.33270 | 10400 ft | 298 kts | 168° |
| 2026-04-21 01:47 | 27.36171 | -82.32807 | 10162 ft | 292 kts | 168° |
| 2026-04-21 01:47 | 27.34192 | -82.32352 | 9842 ft | 290 kts | 168° |
| 2026-04-21 01:47 | 27.32226 | -82.31901 | 9519 ft | 287 kts | 168° |
| 2026-04-21 01:47 | 27.30280 | -82.31455 | 9214 ft | 283 kts | 167° |
| 2026-04-21 01:48 | 27.28358 | -82.31014 | 8915 ft | 282 kts | 167° |
| 2026-04-21 01:48 | 27.26439 | -82.30574 | 8615 ft | 281 kts | 167° |
| 2026-04-21 01:48 | 27.25172 | -82.30283 | 8411 ft | 280 kts | 167° |
| 2026-04-21 01:48 | 27.23274 | -82.29849 | 8164 ft | 275 kts | 167° |
| 2026-04-21 01:49 | 27.21443 | -82.29430 | 8033 ft | 262 kts | 167° |
| 2026-04-21 01:49 | 27.19695 | -82.29031 | 7913 ft | 251 kts | 167° |
| 2026-04-21 01:49 | 27.18007 | -82.28612 | 7690 ft | 248 kts | 161° |
| 2026-04-21 01:49 | 27.16404 | -82.27952 | 7495 ft | 243 kts | 155° |
| 2026-04-21 01:50 | 27.14852 | -82.27205 | 7266 ft | 241 kts | 154° |
| 2026-04-21 01:50 | 27.13318 | -82.26446 | 7025 ft | 240 kts | 154° |
| 2026-04-21 01:50 | 27.11792 | -82.25691 | 6792 ft | 240 kts | 154° |
| 2026-04-21 01:50 | 27.10265 | -82.24938 | 6539 ft | 239 kts | 154° |
| 2026-04-21 01:51 | 27.08742 | -82.24189 | 6283 ft | 239 kts | 154° |
| 2026-04-21 01:51 | 27.07222 | -82.23444 | 6028 ft | 238 kts | 154° |
| 2026-04-21 01:51 | 27.05707 | -82.22700 | 5798 ft | 237 kts | 154° |
| 2026-04-21 01:51 | 27.04197 | -82.21960 | 5569 ft | 236 kts | 154° |
| 2026-04-21 01:52 | 27.02693 | -82.21225 | 5333 ft | 234 kts | 154° |
| 2026-04-21 01:52 | 26.99714 | -82.19765 | 4870 ft | 232 kts | 154° |
| 2026-04-21 01:52 | 26.98254 | -82.19053 | 4629 ft | 231 kts | 153° |
| 2026-04-21 01:53 | 26.96784 | -82.18336 | 4396 ft | 229 kts | 153° |
| 2026-04-21 01:53 | 26.95333 | -82.17626 | 4168 ft | 227 kts | 152° |
| 2026-04-21 01:53 | 26.93887 | -82.16919 | 3936 ft | 225 kts | 152° |
| 2026-04-21 01:53 | 26.92460 | -82.16222 | 3719 ft | 222 kts | 152° |
| 2026-04-21 01:54 | 26.91041 | -82.15529 | 3499 ft | 221 kts | 152° |
| 2026-04-21 01:54 | 26.89649 | -82.14848 | 3377 ft | 213 kts | 151° |
| 2026-04-21 01:54 | 26.88323 | -82.14205 | 3264 ft | 204 kts | 150° |
| 2026-04-21 01:54 | 26.87039 | -82.13581 | 3075 ft | 200 kts | 149° |
| 2026-04-21 01:55 | 26.85754 | -82.12951 | 2742 ft | 202 kts | 149° |
| 2026-04-21 01:55 | 26.84490 | -82.12333 | 2491 ft | 200 kts | 148° |
| 2026-04-21 01:55 | 26.83232 | -82.11721 | 2344 ft | 191 kts | 148° |
| 2026-04-21 01:55 | 26.82057 | -82.11156 | 2226 ft | 178 kts | 147° |
| 2026-04-21 01:56 | 26.80963 | -82.10548 | 2018 ft | 172 kts | 136° |
| 2026-04-21 01:56 | 26.80131 | -82.09663 | 1989 ft | 160 kts | 115° |
| 2026-04-21 01:56 | 26.79707 | -82.08557 | 1994 ft | 150 kts | 94° |
| 2026-04-21 01:56 | 26.79698 | -82.07490 | 1987 ft | 125 kts | 76° |
| 2026-04-21 01:57 | 26.79970 | -82.06622 | 2015 ft | 116 kts | 61° |
| 2026-04-21 01:57 | 26.80458 | -82.05895 | 1998 ft | 119 kts | 46° |
| 2026-04-21 01:57 | 26.81136 | -82.05352 | 1991 ft | 121 kts | 34° |
| 2026-04-21 01:57 | 26.81859 | -82.04903 | 1994 ft | 121 kts | 35° |
| 2026-04-21 01:58 | 26.82597 | -82.04448 | 1994 ft | 121 kts | 35° |
| 2026-04-21 01:58 | 26.83335 | -82.03992 | 1988 ft | 121 kts | 36° |
| 2026-04-21 01:58 | 26.84061 | -82.03556 | 1854 ft | 115 kts | 34° |
| 2026-04-21 01:58 | 26.84758 | -82.03118 | 1523 ft | 117 kts | 35° |
| 2026-04-21 01:59 | 26.85478 | -82.02667 | 1280 ft | 119 kts | 33° |
| 2026-04-21 01:59 | 26.86201 | -82.02220 | 1114 ft | 119 kts | 34° |
| 2026-04-21 01:59 | 26.86932 | -82.01764 | 949 ft | 120 kts | 33° |
| 2026-04-21 01:59 | 26.87654 | -82.01313 | 800 ft | 118 kts | 33° |
| 2026-04-21 02:00 | 26.88373 | -82.00865 | 656 ft | 118 kts | 33° |
| 2026-04-21 02:00 | 26.89087 | -82.00419 | 489 ft | 117 kts | 33° |
| 2026-04-21 02:00 | 26.89798 | -81.99975 | 341 ft | 117 kts | 33° |
| 2026-04-21 02:00 | 26.90503 | -81.99531 | 208 ft | 114 kts | 33° |
| 2026-04-21 02:01 | 26.91157 | -81.99133 | 84 ft | 103 kts | 32° |
| 2026-04-21 02:01 | 26.91734 | -81.98770 | 40 ft | 87 kts | 30° |
| 2026-04-21 02:01 | 26.92170 | -81.98499 | 36 ft | 35 kts | 28° |
| 2026-04-21 02:01 | 26.92241 | -81.98518 | 37 ft | 10 kts | 295° |
| 2026-04-21 02:02 | 26.92252 | -81.98570 | 37 ft | 9 kts | 270° |
| 2026-04-21 02:02 | 26.92230 | -81.98612 | 38 ft | 12 kts | 206° |
| 2026-04-21 02:02 | 26.92100 | -81.98679 | 37 ft | 24 kts | 207° |
| 2026-04-21 02:02 | 26.91994 | -81.98749 | 38 ft | 15 kts | 212° |
| 2026-04-21 02:03 | 26.91872 | -81.98824 | 39 ft | 25 kts | 208° |
| 2026-04-21 02:03 | 26.91812 | -81.98987 | 40 ft | 24 kts | 266° |
| 2026-04-21 02:03 | 26.91797 | -81.99178 | 39 ft | 26 kts | 264° |
| 2026-04-21 02:03 | 26.91779 | -81.99382 | 34 ft | 27 kts | 264° |
| 2026-04-21 02:04 | 26.91767 | -81.99498 | 33 ft | 14 kts | 262° |
| 2026-04-21 02:04 | 26.91727 | -81.99601 | 32 ft | 15 kts | 240° |
| 2026-04-21 02:04 | 26.91671 | -81.99677 | 32 ft | 12 kts | 217° |
| 2026-04-21 02:04 | 26.91620 | -81.99703 | 33 ft | 2 kts | 228° |
| 2026-04-21 02:05 | 26.91618 | -81.99706 | 33 ft | 0 kts | 234° |